CDT,Max TemperatureF,Mean TemperatureF,Min TemperatureF,Max Dew PointF,MeanDew PointF,Min DewpointF,Max Humidity, Mean Humidity, Min Humidity, Max Sea Level PressureIn, Mean Sea Level PressureIn, Min Sea Level PressureIn, Max VisibilityMiles, Mean VisibilityMiles, Min VisibilityMiles, Max Wind SpeedMPH, Mean Wind SpeedMPH, Max Gust SpeedMPH,PrecipitationIn, CloudCover, Events, WindDirDegrees
2013-10-1,69,55,42,51,42,33,90,61,27,29.93,29.71,29.53,10,10,10,18,6,32,0.00,1,,249
2013-10-2,72,50,30,50,39,28,93,74,26,30.07,30.02,29.95,10,10,10,12,2,16,0.09,3,Rain,89
2013-10-3,63,52,41,50,45,40,100,81,52,30.09,30.01,29.97,10,9,1,10,2,18,0.11,3,Rain,56
2013-10-4,61,54,48,48,46,40,90,77,57,30.17,30.13,30.08,10,10,10,15,7,21,0.03,7,Rain,56
2013-10-5,52,49,46,47,45,40,93,89,63,30.08,29.93,29.83,10,6,2,15,11,25,1.50,8,Rain-Thunderstorm,74
2013-10-6,51,42,33,45,41,33,100,88,71,29.83,29.78,29.73,10,8,1,16,7,20,0.12,6,Rain,356
2013-10-7,62,48,33,43,37,30,93,76,41,29.98,29.91,29.80,10,9,2,13,4,,0.00,1,,301
2013-10-8,75,52,30,46,40,29,92,62,34,29.97,29.84,29.74,10,10,10,15,4,25,0.00,0,,170
2013-10-9,73,57,41,50,46,38,96,68,42,30.06,29.97,29.85,10,10,2,9,3,,0.01,0,,198
2013-10-10,73,58,42,50,45,41,96,69,44,30.05,29.99,29.91,10,10,10,14,3,20,0.00,0,,148
2013-10-11,72,62,52,56,51,44,90,71,49,29.94,29.78,29.59,10,9,2,21,10,33,0.18,3,Rain-Thunderstorm,142
2013-10-12,59,52,46,55,45,41,94,84,69,30.10,29.83,29.59,10,8,2,14,9,25,0.29,8,Rain,249
2013-10-13,57,42,30,40,34,27,92,73,38,30.43,30.31,30.10,10,10,10,14,7,18,0.00,3,Rain,284
2013-10-14,51,40,28,43,36,27,93,81,59,30.46,30.36,30.18,10,10,8,12,2,,0.30,7,Rain,109
2013-10-15,46,44,42,43,41,39,93,86,81,30.17,29.94,29.84,10,9,3,17,11,28,0.44,8,Rain,38
2013-10-16,54,42,30,39,33,27,92,72,41,29.94,29.90,29.86,10,10,7,12,6,18,0.00,3,,340
2013-10-17,50,39,28,43,38,27,93,86,77,29.88,29.83,29.78,10,10,7,14,4,,0.07,7,Rain,348
2013-10-18,48,39,30,35,29,25,89,71,46,29.94,29.88,29.80,10,10,10,8,4,,0.00,6,,296
2013-10-19,48,36,26,36,30,24,93,84,54,29.79,29.71,29.66,10,8,0,14,2,,0.08,6,Fog-Snow,326
2013-10-20,36,30,24,34,29,19,93,89,80,29.83,29.74,29.70,10,5,1,15,1,23,0.20,7,Rain-Snow,330
2013-10-21,35,32,28,31,27,20,89,80,66,29.92,29.82,29.76,10,7,1,15,11,25,0.04,7,Snow,295
2013-10-22,39,32,27,31,26,22,93,79,53,30.04,29.98,29.89,10,10,5,10,5,,0.01,7,Snow,342
2013-10-23,35,30,27,27,24,20,85,73,56,30.08,30.02,29.96,10,10,6,16,9,23,0.00,8,Snow,310
2013-10-24,42,36,28,32,27,24,89,75,58,30.28,30.18,30.09,10,9,1,15,8,22,0.00,8,Snow,304
2013-10-25,51,38,25,35,29,23,92,71,49,30.26,29.96,29.68,10,10,10,17,6,26,0.01,5,Rain,240
2013-10-26,45,36,30,34,30,25,89,73,51,30.07,29.93,29.72,10,10,10,20,14,29,0.03,8,Rain,311
2013-10-27,48,39,28,30,26,17,75,66,50,30.32,29.97,29.77,10,10,10,18,7,28,0.00,5,,340
2013-10-28,39,26,15,18,14,12,88,63,37,30.58,30.51,30.35,10,10,10,13,5,18,0.00,0,,18
2013-10-29,37,26,15,27,20,11,85,75,57,30.52,30.36,30.18,10,10,10,6,1,,0.00,4,,0
2013-10-30,43,38,33,39,34,27,100,86,75,30.17,29.92,29.67,10,6,0,7,1,,0.11,8,Fog-Rain,125
2013-10-31,43,41,39,40,39,37,100,92,87,29.68,29.49,29.36,10,5,0,10,2,,0.01,8,Fog,332